createdAt,value
2023-03-02T00:00:43.206Z,25.90
2023-03-02T00:03:10.880Z,25.13
2023-03-02T00:05:38.541Z,24.00
2023-03-02T00:08:05.913Z,20.92
2023-03-02T00:10:33.020Z,22.63
2023-03-02T00:13:00.164Z,22.50
2023-03-02T00:15:27.425Z,21.00
2023-03-02T00:17:54.534Z,21.67
2023-03-02T00:20:21.642Z,19.65
2023-03-02T00:22:48.902Z,22.10
2023-03-02T00:25:16.846Z,21.98
2023-03-02T00:27:44.314Z,21.65
2023-03-02T00:30:12.437Z,20.63
2023-03-02T00:32:39.571Z,22.50
2023-03-02T00:35:07.102Z,20.92
2023-03-02T00:37:35.803Z,22.42
2023-03-02T00:40:05.265Z,20.92
2023-03-02T00:42:32.370Z,20.27
2023-03-02T00:45:01.470Z,21.73
2023-03-02T00:47:29.831Z,20.45
2023-03-02T00:49:57.431Z,19.30
2023-03-02T00:52:24.622Z,24.10
2023-03-02T00:54:51.718Z,21.43
2023-03-02T00:57:18.844Z,21.33
2023-03-02T00:59:45.919Z,22.35
2023-03-02T01:02:13.098Z,20.00
2023-03-02T01:04:41.779Z,19.83
2023-03-02T01:07:11.086Z,18.17
2023-03-02T01:09:41.023Z,20.80
2023-03-02T01:12:10.312Z,19.63
2023-03-02T01:14:39.301Z,21.13
2023-03-02T01:17:07.429Z,20.53
2023-03-02T01:19:35.017Z,21.13
2023-03-02T01:22:02.476Z,19.90
2023-03-02T01:24:30.148Z,20.33
2023-03-02T01:26:57.234Z,19.48
2023-03-02T01:29:24.344Z,18.40
2023-03-02T01:31:51.269Z,17.20
2023-03-02T01:34:18.545Z,19.83
2023-03-02T01:36:46.194Z,18.85
2023-03-02T01:39:15.982Z,19.63
2023-03-02T01:41:44.322Z,18.37
2023-03-02T01:44:31.326Z,20.27
2023-03-02T01:46:58.060Z,20.85
2023-03-02T01:49:25.491Z,20.27
2023-03-02T01:51:53.051Z,18.13
2023-03-02T01:54:23.428Z,19.08
2023-03-02T01:56:52.348Z,19.07
2023-03-02T01:59:20.922Z,18.67
2023-03-02T02:01:50.472Z,18.67
2023-03-02T02:04:18.341Z,20.65
2023-03-02T02:06:48.465Z,19.75
2023-03-02T02:09:18.048Z,19.85
2023-03-02T02:11:45.137Z,19.80
2023-03-02T02:14:12.588Z,20.55
2023-03-02T02:16:40.387Z,21.95
2023-03-02T02:19:13.233Z,19.77
2023-03-02T02:21:40.348Z,18.20
2023-03-02T02:24:07.400Z,19.08
2023-03-02T02:26:38.029Z,18.88
2023-03-02T02:29:08.510Z,19.88
2023-03-02T02:31:38.398Z,19.20
2023-03-02T02:34:14.903Z,19.23
2023-03-02T02:36:45.827Z,18.92
2023-03-02T02:39:16.906Z,18.02
2023-03-02T02:41:44.982Z,19.40
2023-03-02T02:44:15.649Z,20.10
2023-03-02T02:46:42.875Z,18.70
2023-03-02T02:49:17.542Z,17.98
2023-03-02T02:51:44.606Z,18.63
2023-03-02T02:54:15.522Z,18.35
2023-03-02T02:56:42.842Z,18.38
2023-03-02T02:59:19.102Z,19.48
2023-03-02T03:01:46.736Z,20.13
2023-03-02T03:04:15.177Z,18.92
2023-03-02T03:06:50.372Z,18.98
2023-03-02T03:09:17.614Z,19.27
2023-03-02T03:11:45.986Z,18.45
2023-03-02T03:14:15.341Z,17.48
2023-03-02T03:16:43.752Z,18.52
2023-03-02T03:19:18.237Z,20.65
2023-03-02T03:21:45.925Z,19.98
2023-03-02T03:24:13.023Z,18.42
2023-03-02T03:26:40.313Z,20.05
2023-03-02T03:29:07.595Z,19.40
2023-03-02T03:31:34.739Z,19.52
2023-03-02T03:34:01.933Z,19.10
2023-03-02T03:36:30.900Z,19.00
2023-03-02T03:38:58.741Z,19.67
2023-03-02T03:41:26.884Z,19.83
2023-03-02T03:43:54.123Z,18.55
2023-03-02T03:46:21.304Z,19.90
2023-03-02T03:48:48.498Z,18.52
2023-03-02T03:51:15.782Z,18.33
2023-03-02T03:53:42.443Z,19.58
2023-03-02T03:56:09.656Z,20.98
2023-03-02T03:58:36.802Z,21.97
2023-03-02T04:01:04.657Z,20.95
2023-03-02T04:03:31.729Z,22.05
2023-03-02T04:05:58.820Z,19.35
2023-03-02T04:08:25.954Z,20.23
2023-03-02T04:10:53.027Z,18.50
2023-03-02T04:13:20.189Z,21.30
2023-03-02T04:15:50.111Z,23.05
2023-03-02T04:18:17.212Z,22.80
2023-03-02T04:20:44.329Z,22.30
2023-03-02T04:23:11.705Z,20.30
2023-03-02T04:25:38.433Z,19.00
2023-03-02T04:28:05.632Z,20.30
2023-03-02T04:30:33.237Z,19.67
2023-03-02T04:33:00.404Z,22.58
2023-03-02T04:35:27.515Z,20.70
2023-03-02T04:37:54.645Z,20.43
2023-03-02T04:40:22.018Z,21.70
2023-03-02T04:42:49.184Z,19.92
2023-03-02T04:45:16.316Z,20.42
2023-03-02T04:47:43.489Z,20.60
2023-03-02T04:50:12.375Z,23.98
2023-03-02T04:52:39.876Z,20.63
2023-03-02T04:55:07.365Z,21.90
2023-03-02T04:57:34.583Z,20.20
2023-03-02T05:00:01.714Z,20.08
2023-03-02T05:02:28.894Z,20.37
2023-03-02T05:04:56.176Z,20.35
2023-03-02T05:07:23.430Z,21.02
2023-03-02T05:09:50.442Z,20.67
2023-03-02T05:12:19.176Z,23.65
2023-03-02T05:14:46.324Z,22.52
2023-03-02T05:17:13.537Z,24.00
2023-03-02T05:19:40.639Z,21.48
2023-03-02T05:22:07.783Z,19.60
2023-03-02T05:24:35.665Z,20.67
2023-03-02T05:27:02.708Z,23.58
2023-03-02T05:29:29.788Z,22.05
2023-03-02T05:31:57.119Z,23.58
2023-03-02T05:34:24.365Z,31.50
2023-03-02T05:36:51.553Z,31.73
2023-03-02T05:39:18.690Z,26.98
2023-03-02T05:41:45.835Z,29.40
2023-03-02T05:44:12.952Z,41.38
2023-03-02T05:46:40.128Z,39.03
2023-03-02T05:49:07.323Z,34.87
2023-03-02T05:51:34.493Z,30.02
2023-03-02T05:54:01.608Z,31.15
2023-03-02T05:56:28.730Z,26.48
2023-03-02T05:58:55.766Z,24.63
2023-03-02T06:01:22.985Z,24.52
2023-03-02T06:03:50.159Z,21.95
2023-03-02T06:06:17.767Z,24.05
2023-03-02T06:08:45.193Z,27.88
2023-03-02T06:11:12.659Z,33.38
2023-03-02T06:13:40.428Z,33.58
2023-03-02T06:16:07.884Z,31.00
2023-03-02T06:18:35.343Z,27.58
2023-03-02T06:21:02.456Z,24.13
2023-03-02T06:23:29.572Z,23.40
2023-03-02T06:25:57.627Z,24.27
2023-03-02T06:28:25.218Z,23.37
2023-03-02T06:30:52.668Z,21.58
2023-03-02T06:33:21.188Z,22.42
2023-03-02T06:35:48.896Z,24.48
2023-03-02T06:38:16.089Z,24.60
2023-03-02T06:40:43.222Z,26.13
2023-03-02T06:43:10.324Z,22.60
2023-03-02T06:45:37.724Z,23.10
2023-03-02T06:48:05.367Z,22.05
2023-03-02T06:50:32.864Z,28.27
2023-03-02T06:53:00.274Z,25.92
2023-03-02T06:55:27.721Z,27.63
2023-03-02T06:57:54.956Z,25.25
2023-03-02T07:00:26.295Z,27.25
2023-03-02T07:02:53.882Z,23.02
2023-03-02T07:05:21.206Z,24.25
2023-03-02T07:07:48.418Z,23.02
2023-03-02T07:10:15.604Z,24.33
2023-03-02T07:12:43.042Z,24.30
2023-03-02T07:15:12.254Z,24.67
2023-03-02T07:17:40.063Z,25.65
2023-03-02T07:20:07.505Z,24.83
2023-03-02T07:22:34.640Z,25.30
2023-03-02T07:25:01.583Z,21.05
2023-03-02T07:27:28.707Z,22.77
2023-03-02T07:29:55.819Z,22.95
2023-03-02T07:32:23.045Z,22.75
2023-03-02T07:34:50.195Z,23.57
2023-03-02T07:37:17.450Z,23.57
2023-03-02T07:39:44.569Z,22.80
2023-03-02T07:42:12.832Z,20.70
2023-03-02T07:44:40.052Z,21.13
2023-03-02T07:47:07.163Z,19.75
2023-03-02T07:49:35.440Z,23.10
2023-03-02T07:52:03.111Z,19.80
2023-03-02T07:54:30.485Z,19.90
2023-03-02T07:56:58.040Z,20.73
2023-03-02T07:59:25.223Z,20.58
2023-03-02T08:01:52.402Z,21.50
2023-03-02T08:04:19.107Z,23.65
2023-03-02T08:06:46.211Z,19.85
2023-03-02T08:09:15.782Z,22.80
2023-03-02T08:11:44.872Z,21.38
2023-03-02T08:14:12.039Z,22.85
2023-03-02T08:16:39.612Z,22.23
2023-03-02T08:19:06.800Z,22.48
2023-03-02T08:21:34.171Z,25.63
2023-03-02T08:24:01.102Z,19.17
2023-03-02T08:26:28.298Z,19.23
2023-03-02T08:28:55.382Z,22.60
2023-03-02T08:31:22.559Z,18.40
2023-03-02T08:33:49.405Z,22.33
2023-03-02T08:36:18.103Z,22.37
2023-03-02T08:38:45.292Z,19.67
2023-03-02T08:41:14.020Z,19.90
2023-03-02T08:43:41.054Z,22.90
2023-03-02T08:46:08.173Z,20.67
2023-03-02T08:48:34.989Z,22.25
2023-03-02T08:51:05.524Z,20.48
2023-03-02T08:53:33.750Z,19.23
2023-03-02T08:56:00.956Z,21.58
2023-03-02T08:58:28.351Z,18.48
2023-03-02T09:00:55.119Z,19.70
2023-03-02T09:03:21.791Z,21.65
2023-03-02T09:05:48.776Z,22.85
2023-03-02T09:08:15.414Z,19.58
2023-03-02T09:10:42.090Z,20.25
2023-03-02T09:13:08.956Z,20.35
2023-03-02T09:15:35.770Z,19.38
2023-03-02T09:18:02.517Z,19.80
2023-03-02T09:20:29.316Z,19.03
2023-03-02T09:22:56.040Z,22.17
2023-03-02T09:25:22.840Z,17.77
2023-03-02T09:27:49.634Z,16.90
2023-03-02T09:30:16.753Z,18.77
2023-03-02T09:32:43.688Z,20.55
2023-03-02T09:35:11.155Z,19.30
2023-03-02T09:37:38.913Z,17.75
2023-03-02T09:40:07.482Z,21.20
2023-03-02T09:42:54.470Z,21.88
2023-03-02T09:45:25.763Z,18.97
2023-03-02T09:48:16.880Z,19.23
2023-03-02T09:51:01.419Z,17.85
2023-03-02T09:53:36.992Z,18.10
2023-03-02T09:56:04.744Z,17.80
2023-03-02T09:58:37.538Z,18.02
2023-03-02T10:01:11.839Z,18.10
2023-03-02T10:03:54.482Z,19.25
2023-03-02T10:06:21.363Z,21.10
2023-03-02T10:08:50.469Z,17.25
2023-03-02T10:11:57.020Z,16.80
2023-03-02T10:14:31.245Z,15.88
2023-03-02T10:17:09.739Z,14.95
2023-03-02T10:19:44.231Z,16.55
2023-03-02T10:22:36.231Z,16.98
2023-03-02T10:25:22.848Z,15.35
2023-03-02T10:27:53.225Z,17.02
2023-03-02T10:30:31.006Z,16.38
2023-03-02T10:33:03.984Z,16.25
2023-03-02T10:35:31.942Z,16.00
2023-03-02T10:38:07.240Z,15.40
2023-03-02T10:40:42.313Z,16.95
2023-03-02T10:43:18.989Z,15.93
2023-03-02T10:45:46.523Z,18.10
2023-03-02T10:48:14.870Z,16.80
2023-03-02T10:50:43.382Z,16.55
2023-03-02T10:53:18.502Z,13.38
2023-03-02T10:55:47.836Z,16.35
2023-03-02T10:58:22.424Z,16.65
2023-03-02T11:01:07.181Z,13.57
2023-03-02T11:03:34.258Z,14.18
2023-03-02T11:06:18.136Z,15.40
2023-03-02T11:08:44.793Z,16.17
2023-03-02T11:11:23.164Z,14.23
2023-03-02T11:13:49.976Z,15.15
2023-03-02T11:16:17.698Z,17.65
2023-03-02T11:18:54.096Z,12.23
2023-03-02T11:21:43.424Z,14.73
2023-03-02T11:24:17.010Z,12.80
2023-03-02T11:26:54.867Z,14.18
2023-03-02T11:29:31.154Z,15.38
2023-03-02T11:32:20.031Z,13.43
2023-03-02T11:34:54.228Z,14.02
2023-03-02T11:37:23.442Z,12.82
2023-03-02T11:39:55.513Z,13.45
2023-03-02T11:42:27.012Z,15.18
2023-03-02T11:44:53.818Z,14.27
2023-03-02T11:47:21.812Z,14.57
2023-03-02T11:49:54.197Z,14.38
2023-03-02T11:52:25.610Z,14.25
2023-03-02T11:54:55.738Z,13.32
2023-03-02T11:57:31.007Z,15.05
2023-03-02T11:59:59.284Z,14.32
2023-03-02T12:02:27.107Z,11.33
2023-03-02T12:05:04.934Z,11.48
2023-03-02T12:07:32.065Z,11.05
2023-03-02T12:10:07.240Z,14.95
2023-03-02T12:12:41.885Z,13.98
2023-03-02T12:15:34.110Z,10.30
2023-03-02T12:18:00.748Z,12.13
2023-03-02T12:20:29.782Z,12.52
2023-03-02T12:23:09.742Z,10.18
2023-03-02T12:25:43.775Z,12.73
2023-03-02T12:28:27.523Z,11.15
2023-03-02T12:31:09.130Z,13.20
2023-03-02T12:33:48.690Z,9.70
2023-03-02T12:36:25.841Z,12.50
2023-03-02T12:39:04.815Z,11.88
2023-03-02T12:41:57.487Z,11.32
2023-03-02T12:44:51.545Z,10.97
2023-03-02T12:47:27.291Z,12.05
2023-03-02T12:49:59.091Z,12.43
2023-03-02T12:52:32.903Z,11.85
2023-03-02T12:55:00.776Z,12.70
2023-03-02T12:57:28.000Z,11.63
2023-03-02T12:59:58.191Z,14.48
2023-03-02T13:02:29.908Z,11.50
2023-03-02T13:05:07.982Z,10.25
2023-03-02T13:07:37.822Z,11.85
2023-03-02T13:10:41.132Z,14.07
2023-03-02T13:13:44.179Z,10.75
2023-03-02T13:16:23.268Z,10.77
2023-03-02T13:18:56.718Z,11.52
2023-03-02T13:21:37.743Z,10.10
2023-03-02T13:24:25.024Z,11.82
2023-03-02T13:27:05.019Z,10.65
2023-03-02T13:29:32.431Z,11.40
2023-03-02T13:32:34.254Z,11.00
2023-03-02T13:35:03.428Z,11.10
2023-03-02T13:37:34.415Z,11.15
2023-03-02T13:40:04.263Z,12.10
2023-03-02T13:42:40.300Z,10.40
2023-03-02T13:45:27.940Z,12.27
2023-03-02T13:47:56.460Z,11.50
2023-03-02T13:50:25.716Z,10.75
2023-03-02T13:52:55.385Z,11.15
2023-03-02T13:55:22.971Z,9.63
2023-03-02T13:57:52.643Z,10.73
2023-03-02T14:00:31.443Z,12.10
2023-03-02T14:02:59.187Z,9.03
2023-03-02T14:05:32.952Z,10.20
2023-03-02T14:08:00.709Z,11.53
2023-03-02T14:10:27.912Z,10.27
2023-03-02T14:13:02.134Z,10.23
2023-03-02T14:15:28.961Z,12.13
2023-03-02T14:17:55.742Z,10.27
2023-03-02T14:20:22.444Z,10.40
2023-03-02T14:22:50.535Z,8.47
2023-03-02T14:25:17.676Z,11.13
2023-03-02T14:27:47.197Z,9.45
2023-03-02T14:30:18.213Z,11.63
2023-03-02T14:32:45.505Z,12.70
2023-03-02T14:35:13.744Z,9.15
2023-03-02T14:37:44.243Z,11.05
2023-03-02T14:40:16.974Z,13.60
2023-03-02T14:42:43.791Z,10.10
2023-03-02T14:45:11.427Z,10.27
2023-03-02T14:47:38.115Z,8.83
2023-03-02T14:50:05.369Z,8.80
2023-03-02T14:52:37.720Z,11.95
2023-03-02T14:55:15.211Z,10.52
2023-03-02T14:57:41.910Z,8.27
2023-03-02T15:00:12.870Z,13.00
2023-03-02T15:02:39.732Z,10.38
2023-03-02T15:05:06.829Z,11.02
2023-03-02T15:07:33.568Z,9.53
2023-03-02T15:10:00.236Z,12.50
2023-03-02T15:12:26.889Z,17.07
2023-03-02T15:14:53.631Z,10.45
2023-03-02T15:17:20.376Z,12.60
2023-03-02T15:19:47.355Z,10.30
2023-03-02T15:22:14.175Z,11.75
2023-03-02T15:24:41.053Z,8.48
2023-03-02T15:27:07.752Z,8.73
2023-03-02T15:29:34.430Z,8.25
2023-03-02T15:32:01.560Z,10.77
2023-03-02T15:34:28.459Z,11.65
2023-03-02T15:36:55.163Z,9.52
2023-03-02T15:39:21.862Z,10.20
2023-03-02T15:41:48.549Z,9.10
2023-03-02T15:44:22.082Z,10.50
2023-03-02T15:46:54.633Z,9.80
2023-03-02T15:49:24.594Z,8.38
2023-03-02T15:51:52.073Z,9.57
2023-03-02T15:54:19.325Z,9.70
2023-03-02T15:56:49.567Z,8.73
2023-03-02T15:59:16.432Z,11.25
2023-03-02T16:01:43.265Z,10.00
2023-03-02T16:04:10.113Z,8.23
2023-03-02T16:06:37.044Z,10.40
2023-03-02T16:09:04.197Z,8.05
2023-03-02T16:11:31.266Z,9.85
2023-03-02T16:13:58.375Z,12.60
2023-03-02T16:16:26.231Z,15.20
2023-03-02T16:18:54.127Z,10.63
2023-03-02T16:21:21.436Z,12.18
2023-03-02T16:23:48.237Z,8.68
2023-03-02T16:26:18.802Z,14.63
2023-03-02T16:28:45.932Z,11.02
2023-03-02T16:31:15.679Z,14.27
2023-03-02T16:33:42.545Z,13.73
2023-03-02T16:36:09.877Z,15.48
2023-03-02T16:38:37.425Z,8.82
2023-03-02T16:41:05.000Z,14.37
2023-03-02T16:43:32.250Z,16.33
2023-03-02T16:45:59.868Z,12.93
2023-03-02T16:48:27.234Z,17.33
2023-03-02T16:50:58.258Z,15.50
2023-03-02T16:53:25.423Z,14.33
2023-03-02T16:55:52.540Z,16.65
2023-03-02T16:58:19.443Z,12.15
2023-03-02T17:00:46.588Z,20.05
2023-03-02T17:03:13.768Z,15.38
2023-03-02T17:05:43.207Z,16.70
2023-03-02T17:08:11.045Z,19.67
2023-03-02T17:10:39.291Z,19.25
2023-03-02T17:13:06.769Z,16.13
2023-03-02T17:15:36.005Z,18.05
2023-03-02T17:18:03.122Z,13.02
2023-03-02T17:20:30.285Z,13.63
2023-03-02T17:22:57.369Z,14.00
2023-03-02T17:25:24.619Z,11.27
2023-03-02T17:27:52.524Z,14.38
2023-03-02T17:30:20.084Z,13.35
2023-03-02T17:32:47.307Z,11.60
2023-03-02T17:35:15.262Z,10.15
2023-03-02T17:37:42.787Z,10.55
2023-03-02T17:40:12.724Z,11.45
2023-03-02T17:42:39.832Z,11.00
2023-03-02T17:45:07.451Z,15.57
2023-03-02T17:47:35.202Z,12.35
2023-03-02T17:50:03.425Z,12.05
2023-03-02T17:52:30.554Z,14.63
2023-03-02T17:54:57.650Z,15.88
2023-03-02T17:57:24.838Z,15.65
2023-03-02T17:59:51.965Z,17.45
2023-03-02T18:02:19.415Z,18.00
2023-03-02T18:04:46.546Z,12.60
2023-03-02T18:07:13.792Z,13.27
2023-03-02T18:09:40.833Z,14.85
2023-03-02T18:12:08.154Z,11.35
2023-03-02T18:14:35.994Z,14.93
2023-03-02T18:17:04.923Z,11.70
2023-03-02T18:19:32.107Z,12.10
2023-03-02T18:21:59.225Z,12.57
2023-03-02T18:24:26.380Z,15.50
2023-03-02T18:26:53.483Z,18.02
2023-03-02T18:29:22.493Z,16.00
2023-03-02T18:31:49.963Z,18.10
2023-03-02T18:34:17.160Z,14.87
2023-03-02T18:36:44.304Z,15.40
2023-03-02T18:39:11.339Z,16.00
2023-03-02T18:41:38.391Z,13.30
2023-03-02T18:44:06.551Z,12.13
2023-03-02T18:46:34.211Z,14.50
2023-03-02T18:49:01.230Z,14.40
2023-03-02T18:51:28.801Z,18.10
2023-03-02T18:53:55.973Z,26.02
2023-03-02T18:56:23.300Z,21.10
2023-03-02T18:58:51.467Z,18.08
2023-03-02T19:01:18.763Z,14.63
2023-03-02T19:03:46.102Z,14.70
2023-03-02T19:06:14.220Z,14.77
2023-03-02T19:08:41.528Z,16.67
2023-03-02T19:11:09.194Z,15.45
2023-03-02T19:13:36.325Z,16.95
2023-03-02T19:16:03.357Z,18.30
2023-03-02T19:18:31.143Z,16.20
2023-03-02T19:20:58.593Z,17.75
2023-03-02T19:23:25.891Z,15.93
2023-03-02T19:25:53.552Z,15.13
2023-03-02T19:28:21.676Z,16.38
2023-03-02T19:30:48.992Z,16.15
2023-03-02T19:33:16.353Z,18.08
2023-03-02T19:35:43.597Z,17.08
2023-03-02T19:38:11.011Z,17.05
2023-03-02T19:40:38.359Z,20.63
2023-03-02T19:43:05.484Z,16.98
2023-03-02T19:45:34.827Z,17.02
2023-03-02T19:48:03.270Z,19.48
2023-03-02T19:50:30.486Z,19.27
2023-03-02T19:52:57.690Z,19.73
2023-03-02T19:55:25.389Z,20.55
2023-03-02T19:57:59.422Z,20.42
2023-03-02T20:00:27.375Z,20.90
2023-03-02T20:02:54.519Z,19.07
2023-03-02T20:05:21.730Z,19.77
2023-03-02T20:07:48.821Z,19.43
2023-03-02T20:10:23.204Z,21.83
2023-03-02T20:12:50.275Z,20.02
2023-03-02T20:15:17.589Z,22.70
2023-03-02T20:17:44.707Z,20.88
2023-03-02T20:20:12.779Z,20.08
2023-03-02T20:22:39.843Z,22.50
2023-03-02T20:25:07.249Z,23.70
2023-03-02T20:27:34.364Z,23.98
2023-03-02T20:30:01.458Z,23.25
2023-03-02T20:32:28.643Z,22.73
2023-03-02T20:34:55.914Z,19.48
2023-03-02T20:37:25.751Z,20.77
2023-03-02T20:39:53.761Z,21.67
2023-03-02T20:42:21.249Z,22.30
2023-03-02T20:44:48.402Z,20.60
2023-03-02T20:47:16.662Z,21.10
2023-03-02T20:49:43.456Z,20.15
2023-03-02T20:52:10.864Z,24.00
2023-03-02T20:54:39.663Z,20.30
2023-03-02T20:57:08.339Z,22.02
2023-03-02T20:59:37.395Z,20.92
2023-03-02T21:02:04.722Z,20.83
2023-03-02T21:04:33.226Z,22.35
2023-03-02T21:07:00.371Z,21.07
2023-03-02T21:09:27.452Z,19.87
2023-03-02T21:11:54.783Z,21.33
2023-03-02T21:14:22.033Z,21.23
2023-03-02T21:16:49.118Z,23.92
2023-03-02T21:19:17.182Z,21.25
2023-03-02T21:21:44.471Z,21.67
2023-03-02T21:24:12.402Z,20.52
2023-03-02T21:26:41.536Z,22.13
2023-03-02T21:29:09.447Z,22.50
2023-03-02T21:31:36.623Z,24.45
2023-03-02T21:34:03.906Z,23.40
2023-03-02T21:36:31.185Z,21.50
2023-03-02T21:38:58.341Z,21.60
2023-03-02T21:41:25.592Z,21.02
2023-03-02T21:43:52.730Z,21.02
2023-03-02T21:46:22.260Z,21.50
2023-03-02T21:48:50.009Z,23.08
2023-03-02T21:51:17.490Z,22.45
2023-03-02T21:53:44.644Z,23.38
2023-03-02T21:56:20.319Z,21.90
2023-03-02T21:58:48.480Z,22.17
2023-03-02T22:01:15.740Z,21.15
2023-03-02T22:03:43.382Z,22.13
2023-03-02T22:06:15.616Z,22.48
2023-03-02T22:08:42.749Z,20.67
2023-03-02T22:11:14.711Z,19.90
2023-03-02T22:13:42.597Z,21.42
2023-03-02T22:16:26.948Z,21.02
2023-03-02T22:18:55.619Z,21.08
2023-03-02T22:21:23.716Z,22.08
2023-03-02T22:23:50.789Z,21.23
2023-03-02T22:26:18.513Z,24.63
2023-03-02T22:28:45.727Z,24.17
2023-03-02T22:31:21.279Z,22.33
2023-03-02T22:33:49.258Z,24.45
2023-03-02T22:36:21.089Z,23.70
2023-03-02T22:38:48.551Z,21.33
2023-03-02T22:41:17.725Z,21.73
2023-03-02T22:43:45.195Z,23.67
2023-03-02T22:46:17.436Z,22.58
2023-03-02T22:48:45.805Z,21.45
2023-03-02T22:51:17.473Z,22.87
2023-03-02T22:53:53.187Z,20.02
2023-03-02T22:56:21.163Z,22.00
2023-03-02T22:58:49.674Z,22.02
2023-03-02T23:01:25.494Z,21.88
2023-03-02T23:03:54.322Z,22.45
2023-03-02T23:06:22.418Z,22.00
2023-03-02T23:08:49.855Z,23.50
2023-03-02T23:11:19.075Z,21.23
2023-03-02T23:13:46.906Z,20.58
2023-03-02T23:16:17.655Z,21.60
2023-03-02T23:18:45.415Z,22.58
2023-03-02T23:21:15.639Z,23.35
2023-03-02T23:23:42.780Z,21.23
2023-03-02T23:26:09.840Z,23.15
2023-03-02T23:28:37.336Z,20.45
2023-03-02T23:31:04.467Z,22.20
2023-03-02T23:33:31.419Z,22.90
2023-03-02T23:35:58.540Z,20.80
2023-03-02T23:38:25.665Z,21.33
2023-03-02T23:40:52.714Z,20.87
2023-03-02T23:43:19.813Z,19.93
2023-03-02T23:45:47.284Z,21.90
2023-03-02T23:48:14.433Z,19.80
2023-03-02T23:50:41.503Z,21.98
2023-03-02T23:53:08.659Z,20.90
2023-03-02T23:55:36.177Z,23.73
2023-03-02T23:58:03.421Z,23.80
